createdAt,value
2023-05-10T00:00:33.040Z,67.04
2023-05-10T00:01:34.981Z,67.29
2023-05-10T00:02:36.453Z,69.61
2023-05-10T00:03:38.017Z,67.58
2023-05-10T00:04:39.482Z,68.72
2023-05-10T00:05:40.953Z,69.32
2023-05-10T00:06:42.361Z,68.22
2023-05-10T00:07:45.858Z,68.04
2023-05-10T00:08:47.407Z,68.80
2023-05-10T00:09:48.796Z,69.08
2023-05-10T00:10:50.391Z,70.61
2023-05-10T00:11:51.798Z,70.47
2023-05-10T00:12:53.255Z,70.56
2023-05-10T00:13:55.232Z,69.63
2023-05-10T00:14:56.547Z,70.52
2023-05-10T00:15:57.969Z,69.16
2023-05-10T00:16:59.553Z,69.31
2023-05-10T00:18:01.259Z,69.27
2023-05-10T00:19:02.806Z,70.01
2023-05-10T00:20:05.807Z,69.55
2023-05-10T00:21:07.470Z,70.20
2023-05-10T00:22:08.933Z,70.69
2023-05-10T00:23:10.365Z,70.70
2023-05-10T00:24:11.790Z,69.06
2023-05-10T00:25:13.181Z,67.97
2023-05-10T00:26:14.741Z,68.91
2023-05-10T00:27:16.173Z,67.92
2023-05-10T00:28:17.576Z,67.08
2023-05-10T00:29:19.012Z,68.49
2023-05-10T00:30:23.361Z,68.41
2023-05-10T00:31:24.814Z,69.51
2023-05-10T00:32:26.276Z,69.03
2023-05-10T00:33:27.911Z,68.59
2023-05-10T00:34:29.335Z,67.09
2023-05-10T00:35:30.795Z,67.08
2023-05-10T00:36:32.477Z,68.44
2023-05-10T00:37:33.952Z,67.50
2023-05-10T00:38:35.623Z,67.62
2023-05-10T00:39:37.062Z,68.82
2023-05-10T00:40:38.731Z,68.31
2023-05-10T00:41:40.156Z,69.55
2023-05-10T00:42:41.620Z,69.26
2023-05-10T00:43:43.130Z,69.18
2023-05-10T00:44:44.531Z,71.12
2023-05-10T00:45:46.099Z,68.36
2023-05-10T00:46:48.845Z,68.68
2023-05-10T00:47:50.431Z,68.09
2023-05-10T00:48:51.969Z,68.34
2023-05-10T00:49:53.462Z,68.75
2023-05-10T00:50:54.928Z,68.82
2023-05-10T00:51:56.715Z,67.83
2023-05-10T00:52:59.952Z,67.37
2023-05-10T00:54:01.494Z,66.95
2023-05-10T00:55:04.320Z,68.44
2023-05-10T00:56:06.425Z,69.38
2023-05-10T00:57:10.847Z,67.49
2023-05-10T00:58:13.207Z,68.46
2023-05-10T00:59:15.008Z,67.49
2023-05-10T01:00:19.769Z,69.02
2023-05-10T01:01:21.472Z,67.06
2023-05-10T01:02:22.962Z,67.47
2023-05-10T01:03:24.560Z,68.08
2023-05-10T01:04:29.348Z,67.00
2023-05-10T01:05:31.109Z,67.48
2023-05-10T01:06:33.220Z,68.73
2023-05-10T01:07:34.649Z,68.92
2023-05-10T01:08:36.188Z,68.18
2023-05-10T01:09:37.848Z,68.91
2023-05-10T01:10:39.350Z,69.52
2023-05-10T01:11:41.129Z,68.60
2023-05-10T01:12:46.034Z,69.37
2023-05-10T01:13:54.908Z,69.78
2023-05-10T01:14:56.392Z,69.65
2023-05-10T01:15:58.623Z,69.19
2023-05-10T01:17:01.780Z,68.83
2023-05-10T01:18:04.179Z,70.12
2023-05-10T01:19:17.994Z,71.33
2023-05-10T01:20:19.844Z,70.30
2023-05-10T01:21:33.314Z,70.34
2023-05-10T01:22:53.081Z,69.41
2023-05-10T01:23:54.444Z,70.35
2023-05-10T01:25:17.759Z,69.75
2023-05-10T01:26:31.331Z,69.32
2023-05-10T01:27:48.681Z,71.05
2023-05-10T01:29:22.373Z,70.21
2023-05-10T01:30:48.572Z,71.04
2023-05-10T01:31:50.053Z,70.24
2023-05-10T01:33:00.509Z,69.88
2023-05-10T01:34:17.974Z,68.82
2023-05-10T01:35:27.760Z,68.98
2023-05-10T01:36:39.130Z,70.98
2023-05-10T01:37:46.254Z,68.79
2023-05-10T01:38:58.846Z,70.74
2023-05-10T01:40:24.235Z,69.86
2023-05-10T01:41:48.785Z,70.26
2023-05-10T01:42:54.358Z,70.98
2023-05-10T01:44:10.704Z,71.50
2023-05-10T01:45:22.316Z,72.27
2023-05-10T01:46:36.074Z,73.10
2023-05-10T01:47:45.539Z,73.78
2023-05-10T01:48:54.891Z,72.63
2023-05-10T01:50:00.793Z,73.30
2023-05-10T01:51:02.921Z,71.20
2023-05-10T01:52:16.834Z,73.60
2023-05-10T01:53:19.727Z,73.35
2023-05-10T01:54:23.343Z,72.70
2023-05-10T01:55:28.401Z,73.01
2023-05-10T01:56:32.983Z,74.10
2023-05-10T01:57:36.799Z,73.45
2023-05-10T01:58:44.850Z,74.15
2023-05-10T01:59:48.511Z,71.32
2023-05-10T02:00:53.296Z,71.26
2023-05-10T02:01:57.761Z,71.14
2023-05-10T02:03:02.344Z,71.06
2023-05-10T02:04:04.328Z,71.18
2023-05-10T02:05:09.350Z,71.81
2023-05-10T02:06:13.717Z,71.08
2023-05-10T02:07:15.516Z,72.27
2023-05-10T02:08:19.017Z,70.84
2023-05-10T02:09:22.598Z,71.64
2023-05-10T02:10:24.239Z,72.32
2023-05-10T02:11:27.161Z,71.99
2023-05-10T02:12:30.736Z,70.99
2023-05-10T02:13:35.126Z,74.31
2023-05-10T02:14:38.261Z,72.54
2023-05-10T02:15:41.076Z,73.80
2023-05-10T02:16:43.998Z,72.17
2023-05-10T02:17:48.171Z,72.91
2023-05-10T02:18:51.265Z,72.54
2023-05-10T02:19:54.113Z,72.96
2023-05-10T02:20:57.545Z,71.89
2023-05-10T02:22:01.815Z,73.28
2023-05-10T02:23:04.575Z,72.69
2023-05-10T02:24:07.166Z,72.08
2023-05-10T02:25:10.107Z,71.80
2023-05-10T02:26:13.010Z,73.32
2023-05-10T02:27:16.581Z,74.92
2023-05-10T02:28:19.036Z,73.99
2023-05-10T02:29:21.540Z,73.57
2023-05-10T02:30:24.225Z,73.45
2023-05-10T02:31:26.958Z,73.15
2023-05-10T02:32:28.755Z,74.00
2023-05-10T02:33:32.495Z,72.67
2023-05-10T02:34:34.318Z,73.59
2023-05-10T02:35:37.101Z,72.29
2023-05-10T02:36:41.015Z,74.51
2023-05-10T02:37:43.436Z,73.44
2023-05-10T02:38:47.041Z,72.85
2023-05-10T02:39:51.644Z,74.89
2023-05-10T02:40:54.617Z,73.02
2023-05-10T02:41:57.933Z,73.34
2023-05-10T02:43:02.434Z,74.45
2023-05-10T02:44:07.669Z,73.08
2023-05-10T02:45:13.355Z,74.46
2023-05-10T02:46:14.858Z,75.22
2023-05-10T02:47:16.384Z,75.32
2023-05-10T02:48:18.357Z,74.80
2023-05-10T02:49:19.717Z,75.76
2023-05-10T02:50:22.474Z,76.63
2023-05-10T02:51:29.124Z,74.92
2023-05-10T02:52:56.173Z,75.53
2023-05-10T02:54:02.899Z,75.74
2023-05-10T02:55:06.834Z,75.25
2023-05-10T02:56:29.470Z,75.56
2023-05-10T02:57:34.919Z,74.33
2023-05-10T02:58:36.482Z,73.90
2023-05-10T02:59:38.066Z,74.83
2023-05-10T03:00:39.545Z,75.64
2023-05-10T03:01:41.068Z,76.22
2023-05-10T03:02:42.562Z,75.57
2023-05-10T03:03:43.943Z,75.70
2023-05-10T03:04:45.414Z,75.59
2023-05-10T03:05:46.894Z,75.56
2023-05-10T03:06:48.874Z,77.34
2023-05-10T03:07:50.770Z,76.57
2023-05-10T03:08:52.281Z,76.86
2023-05-10T03:09:53.833Z,76.47
2023-05-10T03:11:26.098Z,75.91
2023-05-10T03:12:30.611Z,74.63
2023-05-10T03:13:49.906Z,75.22
2023-05-10T03:15:04.646Z,75.46
2023-05-10T03:16:13.194Z,75.58
2023-05-10T03:17:29.350Z,75.88
2023-05-10T03:18:39.865Z,75.34
2023-05-10T03:19:55.980Z,74.79
2023-05-10T03:21:02.712Z,75.76
2023-05-10T03:22:11.555Z,75.25
2023-05-10T03:23:18.574Z,75.08
2023-05-10T03:24:23.310Z,76.52
2023-05-10T03:25:25.455Z,76.02
2023-05-10T03:26:28.390Z,75.83
2023-05-10T03:27:30.916Z,76.97
2023-05-10T03:28:34.037Z,77.06
2023-05-10T03:29:37.091Z,76.18
2023-05-10T03:30:39.320Z,76.43
2023-05-10T03:31:40.990Z,77.31
2023-05-10T03:32:42.600Z,75.19
2023-05-10T03:33:51.492Z,77.30
2023-05-10T03:34:52.917Z,76.65
2023-05-10T03:35:54.339Z,76.60
2023-05-10T03:36:55.803Z,75.78
2023-05-10T03:37:57.218Z,77.26
2023-05-10T03:38:58.702Z,77.30
2023-05-10T03:40:00.166Z,76.67
2023-05-10T03:41:01.607Z,77.22
2023-05-10T03:42:03.051Z,76.68
2023-05-10T03:43:04.519Z,76.37
2023-05-10T03:44:06.064Z,75.10
2023-05-10T03:45:08.561Z,76.60
2023-05-10T03:46:10.047Z,75.94
2023-05-10T03:47:11.477Z,76.57
2023-05-10T03:48:14.639Z,77.18
2023-05-10T03:49:16.204Z,76.41
2023-05-10T03:50:18.274Z,75.67
2023-05-10T03:51:19.998Z,75.64
2023-05-10T03:52:21.606Z,76.98
2023-05-10T03:53:24.001Z,78.10
2023-05-10T03:54:25.420Z,78.92
2023-05-10T03:55:27.054Z,77.37
2023-05-10T03:56:28.496Z,75.38
2023-05-10T03:57:30.130Z,77.31
2023-05-10T03:58:31.596Z,77.55
2023-05-10T03:59:33.025Z,76.11
2023-05-10T04:00:34.511Z,77.61
2023-05-10T04:01:36.126Z,76.89
2023-05-10T04:02:38.441Z,75.13
2023-05-10T04:03:40.281Z,76.18
2023-05-10T04:04:44.657Z,76.94
2023-05-10T04:05:46.060Z,77.21
2023-05-10T04:06:47.426Z,78.29
2023-05-10T04:07:50.243Z,77.11
2023-05-10T04:08:51.686Z,77.85
2023-05-10T04:09:53.343Z,75.14
2023-05-10T04:10:54.755Z,76.69
2023-05-10T04:11:56.246Z,77.08
2023-05-10T04:12:57.696Z,76.63
2023-05-10T04:13:59.148Z,76.54
2023-05-10T04:15:01.194Z,75.17
2023-05-10T04:16:03.165Z,74.33
2023-05-10T04:17:04.537Z,76.03
2023-05-10T04:18:08.564Z,74.86
2023-05-10T04:19:10.356Z,77.37
2023-05-10T04:20:12.402Z,75.49
2023-05-10T04:21:14.633Z,75.88
2023-05-10T04:22:16.890Z,77.08
2023-05-10T04:23:18.376Z,76.71
2023-05-10T04:24:19.822Z,76.31
2023-05-10T04:25:21.304Z,75.04
2023-05-10T04:26:23.036Z,75.26
2023-05-10T04:27:24.448Z,73.54
2023-05-10T04:28:27.188Z,73.42
2023-05-10T04:29:28.762Z,74.60
2023-05-10T04:30:30.533Z,74.47
2023-05-10T04:31:32.001Z,72.33
2023-05-10T04:32:33.496Z,72.05
2023-05-10T04:33:35.348Z,73.43
2023-05-10T04:34:37.696Z,72.57
2023-05-10T04:35:40.852Z,71.56
2023-05-10T04:36:42.233Z,74.92
2023-05-10T04:37:44.135Z,74.35
2023-05-10T04:38:45.566Z,73.43
2023-05-10T04:39:47.058Z,73.65
2023-05-10T04:40:48.600Z,72.78
2023-05-10T04:41:50.005Z,74.24
2023-05-10T04:42:51.428Z,73.48
2023-05-10T04:43:52.859Z,72.43
2023-05-10T04:44:54.293Z,73.22
2023-05-10T04:45:57.865Z,71.98
2023-05-10T04:47:00.121Z,69.53
2023-05-10T04:48:01.554Z,70.44
2023-05-10T04:49:02.983Z,68.74
2023-05-10T04:50:05.277Z,66.87
2023-05-10T04:51:07.421Z,66.23
2023-05-10T04:52:08.826Z,63.83
2023-05-10T04:53:10.225Z,65.52
2023-05-10T04:54:11.631Z,65.04
2023-05-10T04:55:13.108Z,63.94
2023-05-10T04:56:14.519Z,62.41
2023-05-10T04:57:16.008Z,61.56
2023-05-10T04:58:17.635Z,63.06
2023-05-10T04:59:19.082Z,62.44
2023-05-10T05:00:20.857Z,60.70
2023-05-10T05:01:23.973Z,61.04
2023-05-10T05:02:25.722Z,64.25
2023-05-10T05:03:27.268Z,62.26
2023-05-10T05:04:28.719Z,61.49
2023-05-10T05:05:30.168Z,63.63
2023-05-10T05:06:31.577Z,62.75
2023-05-10T05:07:32.978Z,61.61
2023-05-10T05:08:34.417Z,64.16
2023-05-10T05:09:35.900Z,63.08
2023-05-10T05:10:37.436Z,61.86
2023-05-10T05:11:39.172Z,60.95
2023-05-10T05:12:40.579Z,60.54
2023-05-10T05:13:41.974Z,59.67
2023-05-10T05:14:43.364Z,59.77
2023-05-10T05:15:44.778Z,60.67
2023-05-10T05:16:46.187Z,61.25
2023-05-10T05:17:47.896Z,61.50
2023-05-10T05:18:49.397Z,59.25
2023-05-10T05:19:50.785Z,61.27
2023-05-10T05:20:52.195Z,61.40
2023-05-10T05:21:53.590Z,58.32
2023-05-10T05:22:55.254Z,58.14
2023-05-10T05:23:56.704Z,61.10
2023-05-10T05:25:03.332Z,59.14
2023-05-10T05:26:04.929Z,60.57
2023-05-10T05:27:06.941Z,61.97
2023-05-10T05:28:08.479Z,62.60
2023-05-10T05:29:09.865Z,59.78
2023-05-10T05:30:12.047Z,60.85
2023-05-10T05:31:13.550Z,58.77
2023-05-10T05:32:15.019Z,61.56
2023-05-10T05:33:16.497Z,59.78
2023-05-10T05:34:17.908Z,62.69
2023-05-10T05:35:19.472Z,62.62
2023-05-10T05:36:21.070Z,61.12
2023-05-10T05:37:23.415Z,60.03
2023-05-10T05:38:24.874Z,59.77
2023-05-10T05:39:26.278Z,59.99
2023-05-10T05:40:27.702Z,60.65
2023-05-10T05:41:29.106Z,58.92
2023-05-10T05:42:32.234Z,60.13
2023-05-10T05:43:34.603Z,59.46
2023-05-10T05:44:37.720Z,61.27
2023-05-10T05:45:39.391Z,57.38
2023-05-10T05:46:41.087Z,57.31
2023-05-10T05:47:42.591Z,59.41
2023-05-10T05:48:44.047Z,58.12
2023-05-10T05:49:48.044Z,57.68
2023-05-10T05:50:49.481Z,57.68
2023-05-10T05:51:51.314Z,57.45
2023-05-10T05:52:52.822Z,57.23
2023-05-10T05:53:54.471Z,59.09
2023-05-10T05:54:55.897Z,59.50
2023-05-10T05:55:59.547Z,57.89
2023-05-10T05:57:01.786Z,59.54
2023-05-10T05:58:03.883Z,58.72
2023-05-10T05:59:05.309Z,57.26
2023-05-10T06:00:07.523Z,57.02
2023-05-10T06:01:09.527Z,56.40
2023-05-10T06:02:11.574Z,58.77
2023-05-10T06:03:13.188Z,58.31
2023-05-10T06:04:15.048Z,60.59
2023-05-10T06:05:16.856Z,59.06
2023-05-10T06:06:18.281Z,57.57
2023-05-10T06:07:19.780Z,59.43
2023-05-10T06:08:21.437Z,57.89
2023-05-10T06:09:24.652Z,57.49
2023-05-10T06:10:26.446Z,56.54
2023-05-10T06:11:27.910Z,57.45
2023-05-10T06:12:29.449Z,55.82
2023-05-10T06:13:33.302Z,58.13
2023-05-10T06:14:34.952Z,57.91
2023-05-10T06:15:36.414Z,56.38
2023-05-10T06:16:38.041Z,57.43
2023-05-10T06:17:39.850Z,55.83
2023-05-10T06:18:41.358Z,55.85
2023-05-10T06:19:42.755Z,55.22
2023-05-10T06:20:44.214Z,57.18
2023-05-10T06:21:45.632Z,56.58
2023-05-10T06:22:47.215Z,54.81
2023-05-10T06:23:48.695Z,55.74
2023-05-10T06:24:50.676Z,55.27
2023-05-10T06:25:52.678Z,56.24
2023-05-10T06:26:54.096Z,56.13
2023-05-10T06:27:58.915Z,54.79
2023-05-10T06:29:00.344Z,57.79
2023-05-10T06:30:11.627Z,55.19
2023-05-10T06:31:13.678Z,56.16
2023-05-10T06:32:15.153Z,55.39
2023-05-10T06:33:16.998Z,56.20
2023-05-10T06:34:18.437Z,56.61
2023-05-10T06:35:20.069Z,55.70
2023-05-10T06:36:21.765Z,58.77
2023-05-10T06:37:23.247Z,57.04
2023-05-10T06:38:24.871Z,55.82
2023-05-10T06:39:26.253Z,53.90
2023-05-10T06:40:27.745Z,54.42
2023-05-10T06:41:29.156Z,53.44
2023-05-10T06:42:30.560Z,56.53
2023-05-10T06:43:32.550Z,56.41
2023-05-10T06:44:34.188Z,55.50
2023-05-10T06:45:35.730Z,54.65
2023-05-10T06:46:37.385Z,56.03
2023-05-10T06:47:39.457Z,56.95
2023-05-10T06:48:41.361Z,56.32
2023-05-10T06:49:42.792Z,56.06
2023-05-10T06:50:44.941Z,53.45
2023-05-10T06:51:46.422Z,53.70
2023-05-10T06:52:48.219Z,54.49
2023-05-10T06:53:49.663Z,55.22
2023-05-10T06:54:51.316Z,55.27
2023-05-10T06:55:52.978Z,54.96
2023-05-10T06:56:54.877Z,56.11
2023-05-10T06:57:56.310Z,54.99
2023-05-10T06:58:57.797Z,58.51
2023-05-10T06:59:59.959Z,54.92
2023-05-10T07:01:05.272Z,56.47
2023-05-10T07:02:07.015Z,56.30
2023-05-10T07:03:08.509Z,54.63
2023-05-10T07:04:10.105Z,55.61
2023-05-10T07:05:11.569Z,55.40
2023-05-10T07:06:21.666Z,54.69
2023-05-10T07:07:32.585Z,53.91
2023-05-10T07:08:34.773Z,56.43
2023-05-10T07:09:36.385Z,54.26
2023-05-10T07:10:37.796Z,53.89
2023-05-10T07:11:39.214Z,53.51
2023-05-10T07:12:40.692Z,52.70
2023-05-10T07:13:45.020Z,55.01
2023-05-10T07:14:46.683Z,52.56
2023-05-10T07:15:48.106Z,54.23
2023-05-10T07:16:50.346Z,53.20
2023-05-10T07:17:52.833Z,53.28
2023-05-10T07:18:54.591Z,54.94
2023-05-10T07:19:56.094Z,53.11
2023-05-10T07:20:58.168Z,54.21
2023-05-10T07:21:59.573Z,53.27
2023-05-10T07:23:00.975Z,53.96
2023-05-10T07:24:02.410Z,52.74
2023-05-10T07:25:04.209Z,52.61
2023-05-10T07:26:05.715Z,53.44
2023-05-10T07:27:07.271Z,54.28
2023-05-10T07:28:08.688Z,53.38
2023-05-10T07:29:10.935Z,53.92
2023-05-10T07:30:13.107Z,52.92
2023-05-10T07:31:14.553Z,54.25
2023-05-10T07:32:16.052Z,54.41
2023-05-10T07:33:17.773Z,54.13
2023-05-10T07:34:19.291Z,51.72
2023-05-10T07:35:20.864Z,51.93
2023-05-10T07:36:22.306Z,53.34
2023-05-10T07:37:23.761Z,54.39
2023-05-10T07:38:25.226Z,52.99
2023-05-10T07:39:29.829Z,53.29
2023-05-10T07:40:31.447Z,54.07
2023-05-10T07:41:35.050Z,50.99
2023-05-10T07:42:37.226Z,51.63
2023-05-10T07:43:39.005Z,51.56
2023-05-10T07:44:40.394Z,50.84
2023-05-10T07:45:41.877Z,51.59
2023-05-10T07:46:43.285Z,51.78
2023-05-10T07:47:44.761Z,52.70
2023-05-10T07:48:46.432Z,52.23
2023-05-10T07:49:47.820Z,53.51
2023-05-10T07:50:49.240Z,53.29
2023-05-10T07:51:51.002Z,54.80
2023-05-10T07:52:52.544Z,54.87
2023-05-10T07:53:53.923Z,55.74
2023-05-10T07:54:55.627Z,54.00
2023-05-10T07:56:00.058Z,52.33
2023-05-10T07:57:01.525Z,52.65
2023-05-10T07:58:03.352Z,52.96
2023-05-10T07:59:05.916Z,53.55
2023-05-10T08:00:08.500Z,51.14
2023-05-10T08:01:09.906Z,51.55
2023-05-10T08:02:11.368Z,52.35
2023-05-10T08:03:13.016Z,51.08
2023-05-10T08:04:14.627Z,52.20
2023-05-10T08:05:16.434Z,52.09
2023-05-10T08:06:19.448Z,49.89
2023-05-10T08:07:20.847Z,50.12
2023-05-10T08:08:23.698Z,50.20
2023-05-10T08:09:25.474Z,50.64
2023-05-10T08:10:26.990Z,50.14
2023-05-10T08:11:28.828Z,51.48
2023-05-10T08:12:30.272Z,50.83
2023-05-10T08:13:32.359Z,50.65
2023-05-10T08:14:33.881Z,51.77
2023-05-10T08:15:35.409Z,51.80
2023-05-10T08:16:36.859Z,49.80
2023-05-10T08:17:38.323Z,50.26
2023-05-10T08:18:40.626Z,53.25
2023-05-10T08:19:42.048Z,49.59
2023-05-10T08:20:43.487Z,49.65
2023-05-10T08:21:44.905Z,49.46
2023-05-10T08:22:48.526Z,50.08
2023-05-10T08:23:50.929Z,49.69
2023-05-10T08:24:52.371Z,52.58
2023-05-10T08:25:53.863Z,51.02
2023-05-10T08:26:55.315Z,49.41
2023-05-10T08:27:56.788Z,50.66
2023-05-10T08:28:58.189Z,50.93
2023-05-10T08:29:59.596Z,49.59
2023-05-10T08:31:01.239Z,50.06
2023-05-10T08:32:02.735Z,51.33
2023-05-10T08:33:04.346Z,49.99
2023-05-10T08:34:05.971Z,50.34
2023-05-10T08:35:07.617Z,48.98
2023-05-10T08:36:09.193Z,49.94
2023-05-10T08:37:13.992Z,50.60
2023-05-10T08:38:15.691Z,49.85
2023-05-10T08:39:29.365Z,48.35
2023-05-10T08:40:31.691Z,49.38
2023-05-10T08:41:34.419Z,48.98
2023-05-10T08:42:41.117Z,48.58
2023-05-10T08:43:47.121Z,47.86
2023-05-10T08:44:49.732Z,49.75
2023-05-10T08:45:54.351Z,47.22
2023-05-10T08:46:56.550Z,49.76
2023-05-10T08:47:59.103Z,47.09
2023-05-10T08:49:05.070Z,50.14
2023-05-10T08:50:07.595Z,49.08
2023-05-10T08:51:15.747Z,49.31
2023-05-10T08:52:21.392Z,47.52
2023-05-10T08:53:27.497Z,48.12
2023-05-10T08:54:29.076Z,48.67
2023-05-10T08:55:31.049Z,47.53
2023-05-10T08:56:32.613Z,46.83
2023-05-10T08:57:34.215Z,46.93
2023-05-10T08:58:36.314Z,47.72
2023-05-10T08:59:40.320Z,48.35
2023-05-10T09:00:41.941Z,48.23
2023-05-10T09:01:46.437Z,48.38
2023-05-10T09:02:49.958Z,47.52
2023-05-10T09:03:51.687Z,48.22
2023-05-10T09:04:53.282Z,48.38
2023-05-10T09:05:56.828Z,51.35
2023-05-10T09:06:58.756Z,48.92
2023-05-10T09:08:01.510Z,49.42
2023-05-10T09:09:04.305Z,47.83
2023-05-10T09:10:06.726Z,49.90
2023-05-10T09:11:09.520Z,50.32
2023-05-10T09:12:12.509Z,48.75
2023-05-10T09:13:16.176Z,48.65
2023-05-10T09:14:18.571Z,48.54
2023-05-10T09:15:20.879Z,48.50
2023-05-10T09:16:22.810Z,47.47
2023-05-10T09:17:26.162Z,47.01
2023-05-10T09:18:28.185Z,46.63
2023-05-10T09:19:29.759Z,49.06
2023-05-10T09:20:32.049Z,48.44
2023-05-10T09:21:36.422Z,46.93
2023-05-10T09:22:38.668Z,47.27
2023-05-10T09:23:45.632Z,47.65
2023-05-10T09:24:48.823Z,46.27
2023-05-10T09:26:04.201Z,45.83
2023-05-10T09:27:06.196Z,46.38
2023-05-10T09:28:09.574Z,46.32
2023-05-10T09:29:11.022Z,46.98
2023-05-10T09:30:17.694Z,50.04
2023-05-10T09:31:19.505Z,46.74
2023-05-10T09:32:21.004Z,45.66
2023-05-10T09:33:22.516Z,45.92
2023-05-10T09:34:30.677Z,45.68
2023-05-10T09:35:34.388Z,47.52
2023-05-10T09:36:35.802Z,46.64
2023-05-10T09:37:37.297Z,47.98
2023-05-10T09:38:53.509Z,46.26
2023-05-10T09:39:55.692Z,46.92
2023-05-10T09:40:58.679Z,44.55
2023-05-10T09:42:02.382Z,46.42
2023-05-10T09:43:07.728Z,45.51
2023-05-10T09:44:09.112Z,47.00
2023-05-10T09:45:10.941Z,45.91
2023-05-10T09:46:12.539Z,48.31
2023-05-10T09:47:19.713Z,47.39
2023-05-10T09:48:24.880Z,46.10
2023-05-10T09:49:26.389Z,45.81
2023-05-10T09:50:28.260Z,44.86
2023-05-10T09:51:30.169Z,45.00
2023-05-10T09:52:46.291Z,44.02
2023-05-10T09:53:47.872Z,44.35
2023-05-10T09:54:55.787Z,45.37
2023-05-10T09:55:57.202Z,43.45
2023-05-10T09:56:58.818Z,44.47
2023-05-10T09:58:02.275Z,46.01
2023-05-10T09:59:04.767Z,42.82
2023-05-10T10:00:07.061Z,44.36
2023-05-10T10:01:13.126Z,44.02
2023-05-10T10:02:14.772Z,43.18
2023-05-10T10:03:18.364Z,46.53
2023-05-10T10:04:22.002Z,43.44
2023-05-10T10:05:33.538Z,42.87
2023-05-10T10:06:41.353Z,43.65
2023-05-10T10:07:42.982Z,42.82
2023-05-10T10:08:44.447Z,41.73
2023-05-10T10:09:46.409Z,42.91
2023-05-10T10:10:48.138Z,41.04
2023-05-10T10:11:49.637Z,41.50
2023-05-10T10:12:51.340Z,43.56
2023-05-10T10:13:52.897Z,43.78
2023-05-10T10:14:54.549Z,43.13
2023-05-10T10:15:56.285Z,41.95
2023-05-10T10:17:07.478Z,41.08
2023-05-10T10:18:15.463Z,42.14
2023-05-10T10:19:17.090Z,41.46
2023-05-10T10:20:20.080Z,42.28
2023-05-10T10:21:22.738Z,43.19
2023-05-10T10:22:24.174Z,43.20
2023-05-10T10:23:25.945Z,40.98
2023-05-10T10:24:27.354Z,42.37
2023-05-10T10:25:29.189Z,42.27
2023-05-10T10:26:31.405Z,43.17
2023-05-10T10:27:51.086Z,41.78
2023-05-10T10:28:55.500Z,40.40
2023-05-10T10:30:19.534Z,42.48
2023-05-10T10:31:30.202Z,43.83
2023-05-10T10:32:56.613Z,42.20
2023-05-10T10:34:04.625Z,43.66
2023-05-10T10:35:07.607Z,39.50
2023-05-10T10:36:09.285Z,39.39
2023-05-10T10:37:10.763Z,39.78
2023-05-10T10:38:13.988Z,40.94
2023-05-10T10:39:16.877Z,38.77
2023-05-10T10:40:28.617Z,38.07
2023-05-10T10:41:35.533Z,37.83
2023-05-10T10:42:51.030Z,39.53
2023-05-10T10:44:31.742Z,38.13
2023-05-10T10:45:33.230Z,38.63
2023-05-10T10:46:35.436Z,39.95
2023-05-10T10:47:38.300Z,38.76
2023-05-10T10:48:40.030Z,41.80
2023-05-10T10:49:44.121Z,38.36
2023-05-10T10:50:47.126Z,42.05
2023-05-10T10:52:19.259Z,39.41
2023-05-10T10:53:20.733Z,38.74
2023-05-10T10:54:29.136Z,37.62
2023-05-10T10:55:31.301Z,37.90
2023-05-10T10:56:33.176Z,42.13
2023-05-10T10:57:41.344Z,39.57
2023-05-10T10:58:54.457Z,36.94
2023-05-10T11:00:21.186Z,36.80
2023-05-10T11:01:22.729Z,37.76
2023-05-10T11:02:35.713Z,36.90
2023-05-10T11:03:37.280Z,40.14
2023-05-10T11:04:47.777Z,35.30
2023-05-10T11:05:50.289Z,36.99
2023-05-10T11:06:51.732Z,34.54
2023-05-10T11:07:57.257Z,35.47
2023-05-10T11:08:58.808Z,36.16
2023-05-10T11:10:06.157Z,34.75
2023-05-10T11:11:08.397Z,34.05
2023-05-10T11:12:10.230Z,36.05
2023-05-10T11:13:11.647Z,34.26
2023-05-10T11:14:13.179Z,38.25
2023-05-10T11:15:14.838Z,38.90
2023-05-10T11:16:24.793Z,36.90
2023-05-10T11:17:28.753Z,35.94
2023-05-10T11:18:31.541Z,39.29
2023-05-10T11:19:35.251Z,34.44
2023-05-10T11:20:40.506Z,32.55
2023-05-10T11:22:06.807Z,33.26
2023-05-10T11:23:16.788Z,34.70
2023-05-10T11:24:24.018Z,33.02
2023-05-10T11:25:29.058Z,32.49
2023-05-10T11:26:35.635Z,33.24
2023-05-10T11:27:38.788Z,32.85
2023-05-10T11:28:48.148Z,33.04
2023-05-10T11:29:52.937Z,33.32
2023-05-10T11:30:55.495Z,34.35
2023-05-10T11:32:00.947Z,32.66
2023-05-10T11:33:02.522Z,32.36
2023-05-10T11:34:04.056Z,32.94
2023-05-10T11:35:10.363Z,32.46
2023-05-10T11:36:15.992Z,33.74
2023-05-10T11:37:19.227Z,30.89
2023-05-10T11:38:20.900Z,31.40
2023-05-10T11:39:26.370Z,31.74
2023-05-10T11:40:28.070Z,31.71
2023-05-10T11:41:30.171Z,32.23
2023-05-10T11:42:31.606Z,31.14
2023-05-10T11:43:33.071Z,30.51
2023-05-10T11:44:34.672Z,31.19
2023-05-10T11:45:36.322Z,35.12
2023-05-10T11:46:37.822Z,32.68
2023-05-10T11:47:42.047Z,34.45
2023-05-10T11:48:44.449Z,31.22
2023-05-10T11:49:46.242Z,32.79
2023-05-10T11:50:47.713Z,33.83
2023-05-10T11:51:49.322Z,30.49
2023-05-10T11:52:58.092Z,32.22
2023-05-10T11:53:59.495Z,32.09
2023-05-10T11:55:01.108Z,29.90
2023-05-10T11:56:10.367Z,32.17
2023-05-10T11:57:11.893Z,34.24
2023-05-10T11:58:13.338Z,32.88
2023-05-10T11:59:15.688Z,29.89
2023-05-10T12:00:17.561Z,29.95
2023-05-10T12:01:19.228Z,33.91
2023-05-10T12:02:20.852Z,32.64
2023-05-10T12:03:22.413Z,29.52
2023-05-10T12:04:24.059Z,33.14
2023-05-10T12:05:25.782Z,30.12
2023-05-10T12:06:27.791Z,31.68
2023-05-10T12:07:29.275Z,31.58
2023-05-10T12:08:31.853Z,30.50
2023-05-10T12:09:43.105Z,31.33
2023-05-10T12:10:45.612Z,30.32
2023-05-10T12:11:47.223Z,27.70
2023-05-10T12:12:50.326Z,30.01
2023-05-10T12:13:52.571Z,30.77
2023-05-10T12:14:53.979Z,30.32
2023-05-10T12:15:58.805Z,29.50
2023-05-10T12:17:00.332Z,33.18
2023-05-10T12:18:02.284Z,35.04
2023-05-10T12:19:03.934Z,29.89
2023-05-10T12:20:34.808Z,31.66
2023-05-10T12:21:36.425Z,28.17
2023-05-10T12:22:38.192Z,29.88
2023-05-10T12:23:40.698Z,31.69
2023-05-10T12:24:42.207Z,30.85
2023-05-10T12:25:44.194Z,32.22
2023-05-10T12:26:49.362Z,30.38
2023-05-10T12:27:58.198Z,30.09
2023-05-10T12:29:19.343Z,28.41
2023-05-10T12:30:28.209Z,28.49
2023-05-10T12:31:29.638Z,31.20
2023-05-10T12:32:44.844Z,29.47
2023-05-10T12:33:47.300Z,30.76
2023-05-10T12:34:49.056Z,29.15
2023-05-10T12:35:52.124Z,27.86
2023-05-10T12:36:54.681Z,29.59
2023-05-10T12:37:56.088Z,28.10
2023-05-10T12:39:04.065Z,28.11
2023-05-10T12:40:12.089Z,29.04
2023-05-10T12:41:18.793Z,28.40
2023-05-10T12:42:20.317Z,29.22
2023-05-10T12:43:21.749Z,30.25
2023-05-10T12:44:23.194Z,30.07
2023-05-10T12:45:24.761Z,31.23
2023-05-10T12:46:28.641Z,29.66
2023-05-10T12:47:30.802Z,31.43
2023-05-10T12:48:32.628Z,31.17
2023-05-10T12:49:34.846Z,27.92
2023-05-10T12:50:36.476Z,27.70
2023-05-10T12:51:37.925Z,27.66
2023-05-10T12:52:39.333Z,27.55
2023-05-10T12:53:43.479Z,27.90
2023-05-10T12:54:46.989Z,28.60
2023-05-10T12:55:48.464Z,29.67
2023-05-10T12:56:49.877Z,28.55
2023-05-10T12:57:51.283Z,29.15
2023-05-10T12:58:52.691Z,27.48
2023-05-10T12:59:54.537Z,31.43
2023-05-10T13:00:57.360Z,31.70
2023-05-10T13:01:59.092Z,29.02
2023-05-10T13:03:00.537Z,28.13
2023-05-10T13:04:02.087Z,27.53
2023-05-10T13:05:03.805Z,29.04
2023-05-10T13:06:05.994Z,28.09
2023-05-10T13:07:08.052Z,28.61
2023-05-10T13:08:09.469Z,27.66
2023-05-10T13:09:11.138Z,29.55
2023-05-10T13:10:12.472Z,27.14
2023-05-10T13:11:17.495Z,28.18
2023-05-10T13:12:19.002Z,29.64
2023-05-10T13:13:20.445Z,29.61
2023-05-10T13:14:22.031Z,27.24
2023-05-10T13:15:23.832Z,28.15
2023-05-10T13:16:25.288Z,26.79
2023-05-10T13:17:26.797Z,29.41
2023-05-10T13:18:28.319Z,29.81
2023-05-10T13:19:29.824Z,26.30
2023-05-10T13:20:31.446Z,28.34
2023-05-10T13:21:32.880Z,26.81
2023-05-10T13:22:40.205Z,26.55
2023-05-10T13:23:42.217Z,28.47
2023-05-10T13:24:43.850Z,26.62
2023-05-10T13:25:45.262Z,28.29
2023-05-10T13:26:46.733Z,28.85
2023-05-10T13:27:48.173Z,27.75
2023-05-10T13:28:50.614Z,29.50
2023-05-10T13:29:52.048Z,28.46
2023-05-10T13:30:53.436Z,30.89
2023-05-10T13:31:55.039Z,30.33
2023-05-10T13:32:56.480Z,28.01
2023-05-10T13:33:57.921Z,26.61
2023-05-10T13:34:59.324Z,27.55
2023-05-10T13:36:00.930Z,29.53
2023-05-10T13:37:02.724Z,28.32
2023-05-10T13:38:04.225Z,28.98